Sabinsville, PA

03:51 EDT 19. Duben 2015 (GMT -0400)
Wellsville Municipal-Tarantine | | Change Station
CLOSE
Current Station
Letiště
Location: Wellsville,
Nadmořská výška: 2123 ft
Poblíž povětrnostní stanice

Výška 2123 ft 42.11 °N, 77.98 °W | Updated 55 minutes ago

Jasno
Jasno
41 °F
Pocit jako 35 °F
S
9
Vítr proměnlivý Vítr od VSV

Dnes
Vysoké -- | Nízké -- °F
--% Možnost srážek
Včera
Vysoké -- | Nízké -- °F
Precip. -- inčů
6:24 AM 7:55 PM
Nový měsíc, 0% visible
Tlak 30.17 inčů
Viditelnost 10.0 mílí
Zataženo Jasno
Ochlazování větrem 35 °F
Rosný bod 23 °F
Vlhkost 49%
Dešťové srážky 0.00 inčů
Sněhová pokrývka Není k dispozici
UV záření 0 ze 12
Pyl 11.00 ze 12
Kvalita ovzduší Není k dispozici
Flu Activity Sporadic
METAR KELZ 190656Z AUTO 07008KT 10SM CLR 05/M05 A3016 RMK AO2 SLP214 T00501050

More Conditions Fewer Conditions

Tlak 30.17 inčů
Viditelnost 10.0 mílí
Zataženo Jasno
Ochlazování větrem 35 °F
Rosný bod 23 °F
Vlhkost 49%
Dešťové srážky 0.00 inčů
Sněhová pokrývka Není k dispozici
UV záření 0 ze 12
Pyl 11.00 ze 12
Kvalita ovzduší Není k dispozici
Flu Activity Sporadic
METAR KELZ 190656Z AUTO 07008KT 10SM CLR 05/M05 A3016 RMK AO2 SLP214 T00501050

More Conditions Fewer Conditions

10-Day Weather Forecast

Almanac

Astronomie

Apr. 19, 2015 Východ Západ
Skutečný čas
Občanský soumrak
Námořní soumrak
Astronomický soumrak
Měsíc
Délka denního světla
Délka dne
Tomorrow will be .
, % of the Moon is Illuminated

Dnešní extrémy

State Highs State Lows

Community

WunderPhotos

Upload Photos

1,814,723 snímků staženo!

WunderBlogs® & News

Nearby

Kvalita ovzduší

  Kvalita ovzduší Index kvality ovzduší Polutant
Not available.

Výška sněhu

Station Hloubka Nadmořská výška

Seizmická činnost

Město Distance Mag. Čas & datum
Minimální zobrazený rozsah je 2.5.

Pobřežní teplota vody

Lokalita Teplota

Stations

Poblíž povětrnostní stanice

Lokace stanice Tepl. Ochlazování větrem Rosný bod Vlhkost Vítr Precip. Výška Čas hlášení Typ